createdAt,value
2018-08-24T00:01:27.797Z,99138.27
2018-08-24T00:04:12.700Z,99145.38
2018-08-24T00:06:57.593Z,99136.98
2018-08-24T00:09:42.422Z,99142.66
2018-08-24T00:12:27.306Z,99139.18
2018-08-24T00:15:12.057Z,99147.37
2018-08-24T00:17:56.798Z,99139.22
2018-08-24T00:20:41.618Z,99136.88
2018-08-24T00:23:26.459Z,99139.38
2018-08-24T00:26:11.309Z,99123.24
2018-08-24T00:28:56.110Z,99127.86
2018-08-24T00:31:41.501Z,99136.45
2018-08-24T00:34:26.363Z,99129.29
2018-08-24T00:37:11.152Z,99132.59
2018-08-24T00:39:55.987Z,99127.39
2018-08-24T00:42:40.852Z,99129.43
2018-08-24T00:45:25.735Z,99126.64
2018-08-24T00:48:10.673Z,99125.88
2018-08-24T00:50:55.493Z,99119.95
2018-08-24T00:53:40.866Z,99118.39
2018-08-24T00:56:25.594Z,99119.77
2018-08-24T00:59:10.454Z,99117.59
2018-08-24T01:01:55.297Z,99119.71
2018-08-24T01:04:40.175Z,99120.35
2018-08-24T01:07:25.077Z,99116.52
2018-08-24T01:10:29.149Z,99122.50
2018-08-24T01:13:15.310Z,99135.34
2018-08-24T01:16:03.880Z,99137.83
2018-08-24T01:18:48.710Z,99142.17
2018-08-24T01:21:33.484Z,99147.37
2018-08-24T01:24:18.655Z,99139.69
2018-08-24T01:27:04.696Z,99143.31
2018-08-24T01:29:49.573Z,99135.95
2018-08-24T01:32:34.424Z,99130.52
2018-08-24T01:35:19.296Z,99135.42
2018-08-24T01:38:04.143Z,99140.61
2018-08-24T01:40:48.958Z,99136.28
2018-08-24T01:43:33.790Z,99129.75
2018-08-24T01:46:18.871Z,99130.86
2018-08-24T01:49:03.725Z,99124.87
2018-08-24T01:51:48.537Z,99127.53
2018-08-24T01:54:33.437Z,99128.09
2018-08-24T01:57:18.300Z,99132.47
2018-08-24T02:00:03.145Z,99123.13
2018-08-24T02:02:47.932Z,99123.69
2018-08-24T02:05:32.700Z,99128.03
2018-08-24T02:08:17.562Z,99131.88
2018-08-24T02:11:02.478Z,99128.09
2018-08-24T02:13:52.343Z,99125.63
2018-08-24T02:16:38.149Z,99132.11
2018-08-24T02:19:28.027Z,99129.39
2018-08-24T02:22:16.742Z,99125.02
2018-08-24T02:25:01.541Z,99125.36
2018-08-24T02:27:46.423Z,99129.16
2018-08-24T02:30:31.361Z,99138.16
2018-08-24T02:33:16.102Z,99137.05
2018-08-24T02:36:00.953Z,99131.90
2018-08-24T02:38:45.808Z,99127.25
2018-08-24T02:41:30.725Z,99126.45
2018-08-24T02:44:15.704Z,99126.20
2018-08-24T02:47:00.576Z,99122.94
2018-08-24T02:49:45.412Z,99131.95
2018-08-24T02:52:30.489Z,99119.72
2018-08-24T02:55:15.343Z,99124.87
2018-08-24T02:58:00.265Z,99122.14
2018-08-24T03:00:45.127Z,99117.25
2018-08-24T03:03:29.942Z,99124.06
2018-08-24T03:06:15.128Z,99122.72
2018-08-24T03:08:59.996Z,99122.45
2018-08-24T03:11:44.799Z,99122.45
2018-08-24T03:14:29.679Z,99111.25
2018-08-24T03:17:19.563Z,99109.15
2018-08-24T03:20:04.467Z,99111.34
2018-08-24T03:22:49.293Z,99112.69
2018-08-24T03:25:34.108Z,99120.84
2018-08-24T03:28:18.885Z,99117.04
2018-08-24T03:31:03.689Z,99120.31
2018-08-24T03:33:48.601Z,99117.60
2018-08-24T03:36:33.609Z,99118.70
2018-08-24T03:39:18.575Z,99123.03
2018-08-24T03:42:03.448Z,99111.59
2018-08-24T03:44:48.279Z,99112.70
2018-08-24T03:47:33.177Z,99117.34
2018-08-24T03:50:18.107Z,99116.53
2018-08-24T03:53:02.956Z,99120.33
2018-08-24T03:55:47.741Z,99120.62
2018-08-24T03:58:32.767Z,99124.97
2018-08-24T04:01:17.556Z,99128.25
2018-08-24T04:04:02.459Z,99135.05
2018-08-24T04:06:47.590Z,99138.30
2018-08-24T04:09:32.350Z,99143.77
2018-08-24T04:12:17.227Z,99154.37
2018-08-24T04:15:02.029Z,99148.92
2018-08-24T04:17:46.870Z,99148.41
2018-08-24T04:20:31.700Z,99155.20
2018-08-24T04:23:16.559Z,99149.75
2018-08-24T04:26:01.379Z,99148.39
2018-08-24T04:28:46.216Z,99149.77
2018-08-24T04:31:31.021Z,99148.11
2018-08-24T04:34:15.978Z,99160.92
2018-08-24T04:37:00.809Z,99155.73
2018-08-24T04:39:45.659Z,99159.30
2018-08-24T04:42:30.477Z,99157.95
2018-08-24T04:45:15.429Z,99156.84
2018-08-24T04:48:00.327Z,99155.48
2018-08-24T04:50:45.190Z,99157.66
2018-08-24T04:53:30.041Z,99167.73
2018-08-24T04:56:14.844Z,99169.90
2018-08-24T04:59:00.396Z,99169.84
2018-08-24T05:01:45.250Z,99176.09
2018-08-24T05:04:30.132Z,99179.91
2018-08-24T05:07:14.970Z,99182.27
2018-08-24T05:09:59.857Z,99189.61
2018-08-24T05:12:44.842Z,99195.03
2018-08-24T05:15:29.696Z,99196.96
2018-08-24T05:18:14.508Z,99192.64
2018-08-24T05:20:59.397Z,99195.25
2018-08-24T05:23:44.225Z,99195.25
2018-08-24T05:26:29.188Z,99195.77
2018-08-24T05:29:14.069Z,99200.05
2018-08-24T05:31:58.898Z,99197.50
2018-08-24T05:34:43.758Z,99197.33
2018-08-24T05:37:28.609Z,99199.77
2018-08-24T05:40:13.424Z,99210.09
2018-08-24T05:42:58.336Z,99214.00
2018-08-24T05:45:43.138Z,99211.39
2018-08-24T05:48:28.095Z,99215.52
2018-08-24T05:51:13.055Z,99216.61
2018-08-24T05:53:57.918Z,99215.30
2018-08-24T05:56:42.771Z,99213.41
2018-08-24T05:59:27.697Z,99218.35
2018-08-24T06:02:12.459Z,99220.51
2018-08-24T06:04:57.358Z,99225.22
2018-08-24T06:07:42.216Z,99222.26
2018-08-24T06:10:26.983Z,99226.91
2018-08-24T06:13:16.200Z,99221.88
2018-08-24T06:16:00.958Z,99228.44
2018-08-24T06:18:45.821Z,99224.20
2018-08-24T06:21:30.706Z,99232.90
2018-08-24T06:24:15.479Z,99234.84
2018-08-24T06:27:00.372Z,99226.02
2018-08-24T06:29:45.254Z,99230.89
2018-08-24T06:32:30.046Z,99224.95
2018-08-24T06:35:14.937Z,99231.89
2018-08-24T06:37:59.888Z,99231.55
2018-08-24T06:40:44.921Z,99232.58
2018-08-24T06:43:29.984Z,99240.02
2018-08-24T06:46:14.818Z,99237.59
2018-08-24T06:48:59.741Z,99239.13
2018-08-24T06:51:44.647Z,99238.86
2018-08-24T06:54:29.522Z,99243.91
2018-08-24T06:57:14.409Z,99240.53
2018-08-24T06:59:59.242Z,99240.05
2018-08-24T07:02:44.086Z,99245.66
2018-08-24T07:05:29.098Z,99241.50
2018-08-24T07:08:13.938Z,99236.63
2018-08-24T07:10:58.786Z,99236.67
2018-08-24T07:13:43.552Z,99232.77
2018-08-24T07:16:28.297Z,99236.88
2018-08-24T07:19:13.173Z,99233.23
2018-08-24T07:21:58.004Z,99239.22
2018-08-24T07:24:43.019Z,99246.42
2018-08-24T07:27:27.905Z,99248.44
2018-08-24T07:30:12.692Z,99249.69
2018-08-24T07:32:57.547Z,99259.71
2018-08-24T07:35:42.425Z,99252.75
2018-08-24T07:38:27.241Z,99249.64
2018-08-24T07:41:12.036Z,99255.89
2018-08-24T07:43:56.936Z,99256.34
2018-08-24T07:46:42.079Z,99257.56
2018-08-24T07:49:26.938Z,99262.58
2018-08-24T07:52:11.778Z,99258.38
2018-08-24T07:54:56.647Z,99270.60
2018-08-24T07:57:41.467Z,99269.45
2018-08-24T08:00:26.307Z,99272.02
2018-08-24T08:03:11.219Z,99266.78
2018-08-24T08:05:56.060Z,99269.19
2018-08-24T08:08:40.900Z,99273.78
2018-08-24T08:11:26.044Z,99273.08
2018-08-24T08:14:11.033Z,99274.34
2018-08-24T08:16:59.496Z,99272.42
2018-08-24T08:19:44.413Z,99278.86
2018-08-24T08:22:29.321Z,99287.09
2018-08-24T08:25:14.250Z,99277.35
2018-08-24T08:27:59.027Z,99279.39
2018-08-24T08:30:43.887Z,99276.30
2018-08-24T08:33:28.825Z,99286.72
2018-08-24T08:36:13.672Z,99290.52
2018-08-24T08:38:58.501Z,99288.84
2018-08-24T08:41:43.660Z,99293.51
2018-08-24T08:44:28.530Z,99296.77
2018-08-24T08:47:13.420Z,99294.81
2018-08-24T08:49:58.284Z,99291.62
2018-08-24T08:52:43.281Z,99294.62
2018-08-24T08:55:28.172Z,99286.52
2018-08-24T08:58:12.986Z,99282.80
2018-08-24T09:00:57.881Z,99278.75
2018-08-24T09:03:42.783Z,99287.59
2018-08-24T09:06:27.583Z,99291.17
2018-08-24T09:09:12.351Z,99286.45
2018-08-24T09:11:57.274Z,99293.15
2018-08-24T09:14:42.481Z,99290.15
2018-08-24T09:17:32.579Z,99295.61
2018-08-24T09:20:22.597Z,99303.44
2018-08-24T09:23:12.607Z,99307.29
2018-08-24T09:26:02.561Z,99320.63
2018-08-24T09:28:48.205Z,99327.34
2018-08-24T09:31:35.604Z,99325.05
2018-08-24T09:34:20.503Z,99324.72
2018-08-24T09:37:09.518Z,99342.34
2018-08-24T09:39:54.461Z,99344.53
2018-08-24T09:42:39.255Z,99338.71
2018-08-24T09:45:24.152Z,99339.73
2018-08-24T09:48:14.234Z,99341.19
2018-08-24T09:51:04.233Z,99339.68
2018-08-24T09:53:54.068Z,99347.72
2018-08-24T09:56:40.191Z,99359.14
2018-08-24T09:59:25.145Z,99352.30
2018-08-24T10:02:25.425Z,99359.85
2018-08-24T10:05:15.357Z,99367.98
2018-08-24T10:08:05.042Z,99385.97
2018-08-24T10:10:49.837Z,99395.52
2018-08-24T10:13:34.633Z,99417.13
2018-08-24T10:16:19.528Z,99416.52
2018-08-24T10:19:04.496Z,99404.89
2018-08-24T10:21:49.299Z,99413.51
2018-08-24T10:24:34.157Z,99421.27
2018-08-24T10:27:18.953Z,99412.67
2018-08-24T10:30:04.013Z,99416.91
2018-08-24T10:32:48.895Z,99408.05
2018-08-24T10:35:34.023Z,99411.18
2018-08-24T10:38:18.975Z,99416.80
2018-08-24T10:41:03.850Z,99443.07
2018-08-24T10:43:48.624Z,99422.64
2018-08-24T10:46:33.512Z,99428.43
2018-08-24T10:49:18.441Z,99423.16
2018-08-24T10:52:03.359Z,99421.16
2018-08-24T10:54:48.240Z,99410.48
2018-08-24T10:57:33.048Z,99421.03
2018-08-24T11:00:18.083Z,99417.89
2018-08-24T11:03:02.975Z,99425.33
2018-08-24T11:05:47.891Z,99423.49
2018-08-24T11:08:32.808Z,99418.88
2018-08-24T11:11:17.927Z,99412.64
2018-08-24T11:14:02.853Z,99408.75
2018-08-24T11:16:47.825Z,99400.91
2018-08-24T11:19:32.632Z,99403.73
2018-08-24T11:22:17.537Z,99412.00
2018-08-24T11:25:02.413Z,99413.52
2018-08-24T11:27:47.260Z,99417.50
2018-08-24T11:30:32.117Z,99417.34
2018-08-24T11:33:17.088Z,99413.23
2018-08-24T11:36:02.016Z,99401.61
2018-08-24T11:38:46.853Z,99405.23
2018-08-24T11:41:31.701Z,99407.94
2018-08-24T11:44:16.574Z,99413.00
2018-08-24T11:47:01.438Z,99407.69
2018-08-24T11:49:46.616Z,99415.88
2018-08-24T11:52:31.456Z,99417.41
2018-08-24T11:55:16.407Z,99411.20
2018-08-24T11:58:01.152Z,99419.52
2018-08-24T12:00:46.023Z,99408.36
2018-08-24T12:03:30.856Z,99406.27
2018-08-24T12:06:15.634Z,99410.63
2018-08-24T12:09:00.791Z,99418.66
2018-08-24T12:11:45.578Z,99408.41
2018-08-24T12:14:30.286Z,99397.05
2018-08-24T12:17:19.117Z,99395.55
2018-08-24T12:20:04.013Z,99402.23
2018-08-24T12:22:48.999Z,99401.41
2018-08-24T12:25:33.864Z,99412.22
2018-08-24T12:28:18.690Z,99396.77
2018-08-24T12:31:03.715Z,99394.63
2018-08-24T12:33:48.578Z,99397.86
2018-08-24T12:36:33.506Z,99390.54
2018-08-24T12:39:18.315Z,99395.78
2018-08-24T12:42:03.154Z,99399.44
2018-08-24T12:44:48.038Z,99390.92
2018-08-24T12:47:32.915Z,99393.37
2018-08-24T12:50:18.311Z,99377.41
2018-08-24T12:53:03.146Z,99370.69
2018-08-24T12:55:48.037Z,99362.64
2018-08-24T12:58:32.906Z,99363.56
2018-08-24T13:01:18.020Z,99357.55
2018-08-24T13:04:02.841Z,99358.56
2018-08-24T13:06:47.756Z,99365.44
2018-08-24T13:09:32.641Z,99368.80
2018-08-24T13:12:17.518Z,99370.47
2018-08-24T13:15:02.377Z,99353.64
2018-08-24T13:17:47.098Z,99347.56
2018-08-24T13:20:32.005Z,99335.23
2018-08-24T13:23:16.972Z,99353.48
2018-08-24T13:26:01.802Z,99347.44
2018-08-24T13:28:46.731Z,99343.92
2018-08-24T13:31:31.611Z,99343.88
2018-08-24T13:34:16.440Z,99342.12
2018-08-24T13:37:01.412Z,99333.88
2018-08-24T13:39:46.272Z,99339.56
2018-08-24T13:42:31.163Z,99335.38
2018-08-24T13:45:16.158Z,99344.16
2018-08-24T13:48:00.978Z,99348.05
2018-08-24T13:50:45.925Z,99350.55
2018-08-24T13:53:30.968Z,99341.83
2018-08-24T13:56:16.244Z,99339.73
2018-08-24T13:59:01.126Z,99347.59
2018-08-24T14:01:46.054Z,99337.70
2018-08-24T14:04:31.104Z,99334.34
2018-08-24T14:07:16.020Z,99338.67
2018-08-24T14:10:00.901Z,99342.12
2018-08-24T14:12:45.652Z,99337.84
2018-08-24T14:15:30.467Z,99334.00
2018-08-24T14:18:18.344Z,99338.78
2018-08-24T14:21:03.304Z,99325.79
2018-08-24T14:23:48.174Z,99328.35
2018-08-24T14:26:33.296Z,99326.82
2018-08-24T14:29:18.116Z,99321.99
2018-08-24T14:32:02.994Z,99324.70
2018-08-24T14:34:47.962Z,99322.27
2018-08-24T14:37:32.839Z,99315.73
2018-08-24T14:40:18.340Z,99316.60
2018-08-24T14:43:03.169Z,99324.63
2018-08-24T14:45:47.974Z,99317.54
2018-08-24T14:48:32.988Z,99310.27
2018-08-24T14:51:17.893Z,99310.45
2018-08-24T14:54:02.750Z,99307.97
2018-08-24T14:56:47.594Z,99310.58
2018-08-24T14:59:32.431Z,99304.66
2018-08-24T15:02:17.493Z,99311.01
2018-08-24T15:05:02.541Z,99314.02
2018-08-24T15:07:47.422Z,99307.82
2018-08-24T15:10:32.311Z,99298.97
2018-08-24T15:13:17.114Z,99298.70
2018-08-24T15:16:01.984Z,99297.98
2018-08-24T15:18:46.923Z,99298.03
2018-08-24T15:21:31.719Z,99302.23
2018-08-24T15:24:16.620Z,99303.19
2018-08-24T15:27:02.454Z,99296.95
2018-08-24T15:29:47.244Z,99298.81
2018-08-24T15:32:32.243Z,99295.37
2018-08-24T15:35:17.281Z,99291.72
2018-08-24T15:38:02.034Z,99283.66
2018-08-24T15:40:46.864Z,99283.86
2018-08-24T15:43:31.664Z,99284.42
2018-08-24T15:46:16.584Z,99292.50
2018-08-24T15:49:01.478Z,99284.16
2018-08-24T15:51:46.300Z,99280.05
2018-08-24T15:54:31.103Z,99274.90
2018-08-24T15:57:15.918Z,99277.32
2018-08-24T16:00:01.036Z,99278.19
2018-08-24T16:02:45.879Z,99273.20
2018-08-24T16:05:30.716Z,99278.70
2018-08-24T16:08:15.596Z,99271.88
2018-08-24T16:11:00.438Z,99272.36
2018-08-24T16:13:45.649Z,99279.82
2018-08-24T16:16:30.421Z,99271.16
2018-08-24T16:19:15.304Z,99270.97
2018-08-24T16:22:00.082Z,99269.67
2018-08-24T16:24:44.958Z,99265.91
2018-08-24T16:27:33.490Z,99263.38
2018-08-24T16:30:18.355Z,99266.47
2018-08-24T16:33:03.176Z,99266.44
2018-08-24T16:35:48.072Z,99268.02
2018-08-24T16:38:33.297Z,99265.94
2018-08-24T16:41:18.208Z,99269.37
2018-08-24T16:44:02.995Z,99265.09
2018-08-24T16:46:47.889Z,99267.70
2018-08-24T16:49:32.690Z,99266.89
2018-08-24T16:52:17.536Z,99264.73
2018-08-24T16:55:02.421Z,99258.90
2018-08-24T16:57:48.418Z,99258.22
2018-08-24T17:00:33.333Z,99260.66
2018-08-24T17:03:18.228Z,99265.07
2018-08-24T17:06:03.039Z,99262.61
2018-08-24T17:08:47.863Z,99263.56
2018-08-24T17:11:32.677Z,99260.88
2018-08-24T17:14:17.578Z,99268.75
2018-08-24T17:17:02.444Z,99264.45
2018-08-24T17:19:47.276Z,99267.59
2018-08-24T17:22:32.099Z,99264.36
2018-08-24T17:25:16.900Z,99264.02
2018-08-24T17:28:01.725Z,99263.09
2018-08-24T17:30:46.688Z,99273.78
2018-08-24T17:33:31.413Z,99264.41
2018-08-24T17:36:16.217Z,99258.88
2018-08-24T17:39:01.128Z,99264.98
2018-08-24T17:41:46.028Z,99269.34
2018-08-24T17:44:30.780Z,99259.30
2018-08-24T17:47:15.684Z,99258.70
2018-08-24T17:50:00.451Z,99252.06
2018-08-24T17:52:45.395Z,99258.50
2018-08-24T17:55:30.396Z,99258.98
2018-08-24T17:58:15.474Z,99260.96
2018-08-24T18:01:00.532Z,99273.23
2018-08-24T18:03:45.344Z,99271.86
2018-08-24T18:06:30.131Z,99270.63
2018-08-24T18:09:14.957Z,99259.42
2018-08-24T18:11:59.854Z,99263.62
2018-08-24T18:14:44.758Z,99266.95
2018-08-24T18:17:29.575Z,99267.23
2018-08-24T18:20:14.351Z,99266.95
2018-08-24T18:22:59.314Z,99265.52
2018-08-24T18:25:44.258Z,99260.14
2018-08-24T18:28:29.036Z,99257.70
2018-08-24T18:31:14.189Z,99262.09
2018-08-24T18:33:59.167Z,99268.14
2018-08-24T18:36:44.039Z,99269.02
2018-08-24T18:39:28.888Z,99274.72
2018-08-24T18:42:13.708Z,99286.23
2018-08-24T18:44:58.692Z,99296.05
2018-08-24T18:47:43.708Z,99302.05
2018-08-24T18:50:28.467Z,99312.14
2018-08-24T18:53:13.317Z,99318.19
2018-08-24T18:55:58.372Z,99329.92
2018-08-24T18:58:43.385Z,99328.03
2018-08-24T19:01:28.348Z,99325.00
2018-08-24T19:04:13.369Z,99323.66
2018-08-24T19:06:58.352Z,99327.47
2018-08-24T19:09:43.244Z,99322.56
2018-08-24T19:12:29.638Z,99324.75
2018-08-24T19:15:14.453Z,99321.20
2018-08-24T19:18:04.340Z,99316.56
2018-08-24T19:20:54.280Z,99314.36
2018-08-24T19:23:39.189Z,99319.25
2018-08-24T19:26:24.457Z,99322.55
2018-08-24T19:29:14.375Z,99321.42
2018-08-24T19:31:59.201Z,99324.44
2018-08-24T19:34:44.107Z,99332.34
2018-08-24T19:37:29.128Z,99334.08
2018-08-24T19:40:19.039Z,99334.14
2018-08-24T19:43:03.924Z,99330.33
2018-08-24T19:45:49.013Z,99328.38
2018-08-24T19:48:39.148Z,99326.54
2018-08-24T19:51:24.112Z,99326.29
2018-08-24T19:54:09.114Z,99335.05
2018-08-24T19:56:54.146Z,99332.86
2018-08-24T19:59:39.089Z,99333.41
2018-08-24T20:02:24.776Z,99333.39
2018-08-24T20:05:10.084Z,99332.30
2018-08-24T20:07:59.913Z,99336.66
2018-08-24T20:10:44.776Z,99344.55
2018-08-24T20:13:29.688Z,99346.43
2018-08-24T20:16:19.957Z,99352.94
2018-08-24T20:19:05.056Z,99355.98
2018-08-24T20:21:49.910Z,99354.06
2018-08-24T20:24:34.857Z,99362.79
2018-08-24T20:27:19.694Z,99362.23
2018-08-24T20:30:04.997Z,99353.25
2018-08-24T20:32:50.003Z,99351.34
2018-08-24T20:35:35.057Z,99353.52
2018-08-24T20:38:20.048Z,99353.25
2018-08-24T20:41:04.876Z,99357.11
2018-08-24T20:43:49.796Z,99354.10
2018-08-24T20:46:34.726Z,99353.00
2018-08-24T20:49:20.149Z,99354.66
2018-08-24T20:52:05.057Z,99349.20
2018-08-24T20:54:49.948Z,99342.41
2018-08-24T20:57:34.909Z,99345.66
2018-08-24T21:00:20.025Z,99358.99
2018-08-24T21:03:04.929Z,99355.68
2018-08-24T21:05:49.879Z,99355.97
2018-08-24T21:08:34.711Z,99355.08
2018-08-24T21:11:19.585Z,99362.45
2018-08-24T21:14:04.544Z,99361.27
2018-08-24T21:16:49.567Z,99356.05
2018-08-24T21:19:34.412Z,99357.40
2018-08-24T21:22:19.360Z,99358.92
2018-08-24T21:25:04.482Z,99363.77
2018-08-24T21:27:49.411Z,99363.94
2018-08-24T21:30:34.412Z,99361.73
2018-08-24T21:33:19.357Z,99361.72
2018-08-24T21:36:04.308Z,99364.19
2018-08-24T21:38:49.104Z,99368.19
2018-08-24T21:41:34.017Z,99374.94
2018-08-24T21:44:18.879Z,99383.52
2018-08-24T21:47:04.003Z,99380.47
2018-08-24T21:49:48.852Z,99379.31
2018-08-24T21:52:33.810Z,99378.55
2018-08-24T21:55:18.667Z,99374.47
2018-08-24T21:58:03.761Z,99369.83
2018-08-24T22:00:48.656Z,99377.09
2018-08-24T22:03:33.656Z,99367.87
2018-08-24T22:06:18.528Z,99373.27
2018-08-24T22:09:03.416Z,99371.34
2018-08-24T22:11:48.257Z,99384.02
2018-08-24T22:14:33.164Z,99381.45
2018-08-24T22:17:18.298Z,99384.48
2018-08-24T22:20:03.116Z,99380.38
2018-08-24T22:22:47.958Z,99377.63
2018-08-24T22:25:32.867Z,99374.56
2018-08-24T22:28:17.692Z,99371.16
2018-08-24T22:31:02.459Z,99376.77
2018-08-24T22:33:47.378Z,99377.31
2018-08-24T22:36:32.133Z,99372.84
2018-08-24T22:39:16.928Z,99370.50
2018-08-24T22:42:01.646Z,99369.55
2018-08-24T22:44:46.533Z,99370.94
2018-08-24T22:47:31.330Z,99378.98
2018-08-24T22:50:16.212Z,99382.86
2018-08-24T22:53:01.098Z,99377.63
2018-08-24T22:55:45.966Z,99381.64
2018-08-24T22:58:30.772Z,99372.82
2018-08-24T23:01:15.499Z,99385.38
2018-08-24T23:04:00.396Z,99380.69
2018-08-24T23:06:45.167Z,99375.97
2018-08-24T23:09:30.030Z,99372.28
2018-08-24T23:12:14.776Z,99369.27
2018-08-24T23:14:59.653Z,99371.05
2018-08-24T23:17:44.409Z,99369.73
2018-08-24T23:20:29.239Z,99369.31
2018-08-24T23:23:14.111Z,99361.75
2018-08-24T23:25:58.926Z,99364.81
2018-08-24T23:28:43.721Z,99360.91
2018-08-24T23:31:28.544Z,99363.87
2018-08-24T23:34:13.303Z,99368.55
2018-08-24T23:36:58.037Z,99363.77
2018-08-24T23:39:42.910Z,99355.22
2018-08-24T23:42:27.674Z,99364.14
2018-08-24T23:45:12.555Z,99362.78
2018-08-24T23:47:57.375Z,99358.41
2018-08-24T23:50:42.139Z,99365.91
2018-08-24T23:53:26.892Z,99369.53
2018-08-24T23:56:11.686Z,99364.55
2018-08-24T23:58:56.705Z,99359.77
